Clear Creek Springs, Kentucky
Current Conditions -  °F | °C
As of 1:35 AM on Friday 31 Oct 2014 (Local Time) from K1A6 Reporting Station
Clear Clear  
Wind Chill: 37°   Ceiling: Unl
Heat Index: 37°   Visibility: 10mi
Dew Point: 36°   Wind: 0mph
Humidity: 98%   Direction: NA
Pressure: 30.03"   Gusts: NA
Location:  36.7417°N, 83.6911°W
Report Text: K1A6 310535Z AUTO 00000KT 10SM CLR 03/02 A3003 RMK AO2 T00250022
Loading
Personal Weather Stations






























Interactive Weather Map
Tropical Storm Tracking
New forecast layout! Learn more

10-Day Weather Forecast

Advertisements
Track Severe Weather on mobile